CFG47T EDDH-EDDN
Flight info
| Callsign | CFG47T |
|---|---|
| Flight time | N/A |
| Altitude | 37000 |
| Route | AMLUH3B/23 AMLUH M852 DENIX DCT ZUCKA DCT GALMA M736 TABAT Q244 PIVIR PIVIR1T |
| Aircraft | A320/M-SDE3FGHIRWY/LB1 |
Departure
| Time | 2026-05-01 15:19 |
|---|---|
| Airport | Hamburg Helmut Schmidt Airport (EDDH) |
Arrival
| Time | N/A |
|---|---|
| Airport | Nuremberg Airport (EDDN) |
| Time | Latitude | Longitude | Altitude | Speed | Heading |
|---|---|---|---|---|---|
| 2026-05-01 15:00 | 53.63418 | 10.00345 | 51 ft | 0 kts | 99° |
| 2026-05-01 15:09 | 53.63418 | 10.00346 | 51 ft | 0 kts | 99° |
| 2026-05-01 15:10 | 53.63418 | 10.00348 | 51 ft | 0 kts | 99° |
| 2026-05-01 15:10 | 53.63424 | 10.00294 | 51 ft | 3 kts | 94° |
| 2026-05-01 15:10 | 53.63422 | 10.00264 | 51 ft | 3 kts | 57° |
| 2026-05-01 15:11 | 53.63415 | 10.00250 | 51 ft | 2 kts | 47° |
| 2026-05-01 15:11 | 53.63393 | 10.00227 | 51 ft | 0 kts | 0° |
| 2026-05-01 15:13 | 53.63504 | 10.00166 | 52 ft | 5 kts | 321° |
| 2026-05-01 15:14 | 53.63574 | 10.00068 | 52 ft | 9 kts | 318° |
| 2026-05-01 15:14 | 53.63602 | 9.99979 | 50 ft | 8 kts | 262° |
| 2026-05-01 15:14 | 53.63582 | 9.99929 | 51 ft | 0 kts | 231° |
| 2026-05-01 15:18 | 53.63394 | 9.99548 | 50 ft | 90 kts | 229° |
| 2026-05-01 15:18 | 53.62804 | 9.98342 | 65 ft | 169 kts | 228° |
| 2026-05-01 15:19 | 53.60298 | 9.93208 | 3029 ft | 214 kts | 227° |
| 2026-05-01 15:19 | 53.58602 | 9.89760 | 4637 ft | 229 kts | 227° |
| 2026-05-01 15:19 | 53.57595 | 9.88007 | 5517 ft | 222 kts | 223° |
| 2026-05-01 15:20 | 53.54925 | 9.86317 | 7218 ft | 221 kts | 162° |
| 2026-05-01 15:20 | 53.53635 | 9.87737 | 7969 ft | 226 kts | 140° |
| 2026-05-01 15:20 | 53.52478 | 9.89551 | 8805 ft | 228 kts | 133° |
| 2026-05-01 15:21 | 53.51666 | 9.91876 | 9607 ft | 236 kts | 112° |
| 2026-05-01 15:21 | 53.51177 | 9.94630 | 10121 ft | 254 kts | 116° |
| 2026-05-01 15:21 | 53.50034 | 9.96970 | 10465 ft | 271 kts | 150° |
| 2026-05-01 15:21 | 53.48251 | 9.98242 | 10811 ft | 294 kts | 162° |
| 2026-05-01 15:22 | 53.44063 | 10.00242 | 11810 ft | 325 kts | 165° |
| 2026-05-01 15:22 | 53.41861 | 10.01277 | 12602 ft | 331 kts | 164° |
| 2026-05-01 15:22 | 53.39629 | 10.02400 | 13430 ft | 335 kts | 163° |
| 2026-05-01 15:23 | 53.37392 | 10.03600 | 14227 ft | 340 kts | 162° |
| 2026-05-01 15:23 | 53.35153 | 10.04851 | 14932 ft | 345 kts | 161° |
| 2026-05-01 15:23 | 53.32866 | 10.06158 | 15633 ft | 350 kts | 161° |
| 2026-05-01 15:23 | 53.30552 | 10.07487 | 16332 ft | 354 kts | 161° |
| 2026-05-01 15:24 | 53.28191 | 10.08840 | 17028 ft | 359 kts | 161° |
| 2026-05-01 15:24 | 53.25831 | 10.10183 | 17722 ft | 363 kts | 161° |
| 2026-05-01 15:24 | 53.23422 | 10.11550 | 18417 ft | 368 kts | 161° |
| 2026-05-01 15:24 | 53.20980 | 10.12931 | 19035 ft | 372 kts | 161° |
| 2026-05-01 15:25 | 53.18508 | 10.14321 | 19669 ft | 376 kts | 161° |
| 2026-05-01 15:25 | 53.16017 | 10.15719 | 20308 ft | 379 kts | 161° |
| 2026-05-01 15:25 | 53.13527 | 10.17115 | 20945 ft | 382 kts | 161° |
| 2026-05-01 15:25 | 53.10989 | 10.18538 | 21588 ft | 386 kts | 161° |
| 2026-05-01 15:26 | 53.08431 | 10.19968 | 22211 ft | 389 kts | 161° |
| 2026-05-01 15:26 | 53.05848 | 10.21411 | 22837 ft | 392 kts | 161° |
| 2026-05-01 15:26 | 53.03278 | 10.22842 | 23437 ft | 395 kts | 161° |
| 2026-05-01 15:26 | 53.00644 | 10.24309 | 24011 ft | 399 kts | 161° |
| 2026-05-01 15:27 | 52.97994 | 10.25787 | 24502 ft | 402 kts | 161° |
| 2026-05-01 15:27 | 52.95369 | 10.27247 | 24969 ft | 405 kts | 161° |
| 2026-05-01 15:27 | 52.92680 | 10.28740 | 25429 ft | 408 kts | 161° |
| 2026-05-01 15:28 | 52.87253 | 10.31750 | 26331 ft | 414 kts | 161° |
| 2026-05-01 15:28 | 52.84508 | 10.33272 | 26770 ft | 416 kts | 161° |
| 2026-05-01 15:28 | 52.81784 | 10.34780 | 27190 ft | 419 kts | 160° |
| 2026-05-01 15:29 | 52.76192 | 10.37864 | 28027 ft | 425 kts | 160° |
| 2026-05-01 15:29 | 52.73364 | 10.39417 | 28428 ft | 428 kts | 160° |
| 2026-05-01 15:29 | 52.67708 | 10.42523 | 29208 ft | 433 kts | 160° |
| 2026-05-01 15:30 | 52.61965 | 10.45669 | 29930 ft | 439 kts | 160° |
| 2026-05-01 15:31 | 52.50223 | 10.52078 | 31146 ft | 449 kts | 161° |
| 2026-05-01 15:31 | 52.44269 | 10.55310 | 31354 ft | 450 kts | 161° |
| 2026-05-01 15:32 | 52.32403 | 10.61731 | 31356 ft | 450 kts | 161° |
| 2026-05-01 15:34 | 52.14764 | 10.71203 | 30669 ft | 433 kts | 161° |